createdAt,value
2023-09-26T00:00:24.448Z,14.94
2023-09-26T00:01:30.714Z,14.93
2023-09-26T00:03:25.975Z,14.93
2023-09-26T00:04:27.039Z,14.93
2023-09-26T00:05:25.716Z,14.93
2023-09-26T00:06:26.902Z,14.93
2023-09-26T00:07:24.130Z,14.93
2023-09-26T00:08:24.476Z,14.93
2023-09-26T00:09:22.622Z,14.93
2023-09-26T00:10:23.006Z,14.93
2023-09-26T00:11:28.375Z,14.93
2023-09-26T00:12:26.637Z,14.93
2023-09-26T00:13:24.994Z,14.93
2023-09-26T00:14:25.432Z,14.92
2023-09-26T00:15:23.376Z,14.89
2023-09-26T00:16:23.866Z,14.92
2023-09-26T00:17:21.329Z,14.87
2023-09-26T00:18:22.284Z,14.87
2023-09-26T00:19:22.613Z,14.87
2023-09-26T00:20:23.604Z,14.87
2023-09-26T00:21:25.895Z,14.87
2023-09-26T00:22:23.129Z,14.87
2023-09-26T00:23:23.237Z,14.87
2023-09-26T00:24:23.650Z,14.87
2023-09-26T00:25:21.666Z,14.87
2023-09-26T00:26:21.842Z,14.87
2023-09-26T00:27:22.588Z,14.87
2023-09-26T00:28:22.158Z,14.87
2023-09-26T00:29:22.250Z,14.87
2023-09-26T00:30:21.817Z,14.87
2023-09-26T00:31:23.046Z,14.87
2023-09-26T00:32:23.088Z,14.87
2023-09-26T00:33:22.806Z,14.84
2023-09-26T00:34:21.311Z,14.82
2023-09-26T00:35:20.587Z,14.81
2023-09-26T00:36:19.198Z,14.81
2023-09-26T00:37:20.378Z,14.81
2023-09-26T00:38:20.702Z,14.81
2023-09-26T00:39:21.931Z,14.81
2023-09-26T00:40:23.991Z,14.81
2023-09-26T00:41:28.791Z,14.80
2023-09-26T00:42:25.301Z,14.77
2023-09-26T00:43:23.109Z,14.75
2023-09-26T00:44:21.890Z,14.75
2023-09-26T00:45:22.488Z,14.75
2023-09-26T00:46:24.879Z,14.75
2023-09-26T00:47:24.650Z,14.75
2023-09-26T00:48:22.172Z,14.75
2023-09-26T00:49:22.275Z,14.75
2023-09-26T00:50:22.464Z,14.75
2023-09-26T00:51:23.349Z,14.75
2023-09-26T00:52:22.818Z,14.69
2023-09-26T00:53:22.373Z,14.68
2023-09-26T00:54:23.237Z,14.68
2023-09-26T00:55:22.563Z,14.68
2023-09-26T00:56:22.221Z,14.68
2023-09-26T00:57:20.641Z,14.68
2023-09-26T00:58:20.994Z,14.68
2023-09-26T00:59:22.236Z,14.68
2023-09-26T01:00:22.906Z,14.67
2023-09-26T01:01:24.145Z,12
2023-09-26T01:02:24.833Z,14.62
2023-09-26T01:03:23.059Z,14.62
2023-09-26T01:04:23.563Z,14.62
2023-09-26T01:05:20.115Z,14.62
2023-09-26T01:06:20.589Z,14.62
2023-09-26T01:07:21.506Z,14.62
2023-09-26T01:08:21.916Z,14.62
2023-09-26T01:09:22.214Z,14.62
2023-09-26T01:10:22.688Z,14.59
2023-09-26T01:11:26.269Z,14.56
2023-09-26T01:12:25.380Z,14.56
2023-09-26T01:13:24.316Z,14.56
2023-09-26T01:14:23.738Z,14.56
2023-09-26T01:15:23.526Z,14.56
2023-09-26T01:16:24.462Z,14.56
2023-09-26T01:17:24.545Z,14.56
2023-09-26T01:18:23.060Z,14.56
2023-09-26T01:19:23.945Z,14.54
2023-09-26T01:20:23.114Z,14.52
2023-09-26T01:21:24.876Z,14.5
2023-09-26T01:22:24.285Z,14.5
2023-09-26T01:23:23.765Z,14.5
2023-09-26T01:24:22.633Z,14.5
2023-09-26T01:25:22.439Z,14.5
2023-09-26T01:26:23.193Z,14.5
2023-09-26T01:27:24.880Z,14.5
2023-09-26T01:28:24.476Z,14.5
2023-09-26T01:29:22.598Z,14.5
2023-09-26T01:30:22.739Z,14.47
2023-09-26T01:31:23.182Z,14.43
2023-09-26T01:32:22.838Z,14.43
2023-09-26T01:33:22.759Z,14.43
2023-09-26T01:34:24.012Z,14.43
2023-09-26T01:35:23.160Z,14.43
2023-09-26T01:36:23.360Z,14.43
2023-09-26T01:37:22.821Z,14.43
2023-09-26T01:38:21.687Z,14.43
2023-09-26T01:39:20.411Z,14.43
2023-09-26T01:40:23.795Z,14.42
2023-09-26T01:41:24.660Z,14.43
2023-09-26T01:42:24.390Z,14.40
2023-09-26T01:43:24.445Z,14.38
2023-09-26T01:44:23.544Z,14.37
2023-09-26T01:45:21.250Z,14.37
2023-09-26T01:46:20.898Z,14.37
2023-09-26T01:47:21.223Z,14.37
2023-09-26T01:48:20.412Z,14.37
2023-09-26T01:49:20.072Z,14.37
2023-09-26T01:50:21.099Z,14.37
2023-09-26T01:51:20.742Z,14.37
2023-09-26T01:52:20.514Z,14.37
2023-09-26T01:53:21.103Z,14.37
2023-09-26T01:54:20.947Z,14.35
2023-09-26T01:55:20.078Z,14.35
2023-09-26T01:56:21.398Z,14.37
2023-09-26T01:57:20.114Z,14.31
2023-09-26T01:58:21.380Z,14.31
2023-09-26T01:59:20.498Z,14.32
2023-09-26T02:00:21.939Z,14.31
2023-09-26T02:01:22.406Z,14.31
2023-09-26T02:02:20.708Z,14.31
2023-09-26T02:03:21.255Z,14.31
2023-09-26T02:04:22.956Z,14.31
2023-09-26T02:05:22.757Z,14.31
2023-09-26T02:06:24.849Z,14.31
2023-09-26T02:07:27.826Z,14.31
2023-09-26T02:08:26.157Z,14.31
2023-09-26T02:09:24.468Z,14.31
2023-09-26T02:10:23.663Z,14.31
2023-09-26T02:11:28.280Z,14.31
2023-09-26T02:12:25.955Z,14.30
2023-09-26T02:13:23.237Z,14.27
2023-09-26T02:14:25.413Z,14.25
2023-09-26T02:15:24.432Z,14.25
2023-09-26T02:16:24.706Z,14.25
2023-09-26T02:17:23.791Z,14.25
2023-09-26T02:18:21.821Z,14.25
2023-09-26T02:19:22.325Z,14.25
2023-09-26T02:20:23.483Z,14.25
2023-09-26T02:21:23.652Z,14.25
2023-09-26T02:22:21.918Z,14.25
2023-09-26T02:23:23.216Z,14.21
2023-09-26T02:24:23.035Z,14.21
2023-09-26T02:25:23.675Z,14.22
2023-09-26T02:26:21.747Z,14.18
2023-09-26T02:27:20.531Z,14.18
2023-09-26T02:28:21.965Z,14.18
2023-09-26T02:29:22.089Z,14.18
2023-09-26T02:30:21.799Z,14.18
2023-09-26T02:31:23.103Z,14.18
2023-09-26T02:32:23.679Z,14.18
2023-09-26T02:33:23.555Z,14.17
2023-09-26T02:34:24.444Z,14.17
2023-09-26T02:35:24.452Z,14.14
2023-09-26T02:36:24.361Z,14.13
2023-09-26T02:37:23.649Z,14.12
2023-09-26T02:38:22.558Z,14.12
2023-09-26T02:39:21.429Z,14.12
2023-09-26T02:40:23.244Z,14.12
2023-09-26T02:41:26.520Z,14.12
2023-09-26T02:42:24.639Z,14.12
2023-09-26T02:43:23.504Z,14.12
2023-09-26T02:44:23.299Z,14.10
2023-09-26T02:45:23.841Z,14.07
2023-09-26T02:46:25.250Z,14.09
2023-09-26T02:47:23.751Z,14.07
2023-09-26T02:48:22.162Z,14.06
2023-09-26T02:49:23.072Z,14.06
2023-09-26T02:50:22.848Z,14.08
2023-09-26T02:51:23.554Z,14.06
2023-09-26T02:52:23.073Z,14.06
2023-09-26T02:53:23.152Z,14.06
2023-09-26T02:54:22.916Z,14.06
2023-09-26T02:55:23.319Z,14.05
2023-09-26T02:56:24.145Z,14.01
2023-09-26T02:57:24.248Z,14
2023-09-26T02:58:25.121Z,14
2023-09-26T02:59:24.432Z,14
2023-09-26T03:00:24.755Z,14
2023-09-26T03:01:28.324Z,14
2023-09-26T03:02:24.840Z,14
2023-09-26T03:03:24.174Z,14
2023-09-26T03:04:25.021Z,14
2023-09-26T03:05:25.162Z,14
2023-09-26T03:06:23.953Z,14
2023-09-26T03:07:22.013Z,14
2023-09-26T03:08:21.598Z,14
2023-09-26T03:09:22.077Z,14
2023-09-26T03:10:22.730Z,13.96
2023-09-26T03:11:29.197Z,13.95
2023-09-26T03:12:28.030Z,13.95
2023-09-26T03:13:25.444Z,13.94
2023-09-26T03:14:23.356Z,13.93
2023-09-26T03:15:23.782Z,13.93
2023-09-26T03:16:25.639Z,13.95
2023-09-26T03:17:25.309Z,13.93
2023-09-26T03:18:25.036Z,13.93
2023-09-26T03:19:24.999Z,13.93
2023-09-26T03:20:23.661Z,13.93
2023-09-26T03:21:24.913Z,13.93
2023-09-26T03:22:21.462Z,13.93
2023-09-26T03:23:22.014Z,13.93
2023-09-26T03:24:22.455Z,13.93
2023-09-26T03:25:22.357Z,13.93
2023-09-26T03:26:22.532Z,13.93
2023-09-26T03:27:20.989Z,13.88
2023-09-26T03:28:21.230Z,13.87
2023-09-26T03:29:19.856Z,13.87
2023-09-26T03:30:21.460Z,13.87
2023-09-26T03:31:25.887Z,13.87
2023-09-26T03:32:23.978Z,13.87
2023-09-26T03:33:23.725Z,13.87
2023-09-26T03:34:20.729Z,13.87
2023-09-26T03:35:22.046Z,13.87
2023-09-26T03:36:22.677Z,13.86
2023-09-26T03:37:21.312Z,13.82
2023-09-26T03:38:22.111Z,13.81
2023-09-26T03:39:22.152Z,13.81
2023-09-26T03:40:23.561Z,13.81
2023-09-26T03:41:24.028Z,13.81
2023-09-26T03:42:22.630Z,13.81
2023-09-26T03:43:21.430Z,13.81
2023-09-26T03:44:20.570Z,13.81
2023-09-26T03:45:21.803Z,13.81
2023-09-26T03:46:27.733Z,13.81
2023-09-26T03:47:27.848Z,13.81
2023-09-26T03:48:28.474Z,13.81
2023-09-26T03:49:29.564Z,13.81
2023-09-26T03:50:27.517Z,13.81
2023-09-26T03:51:31.297Z,13.81
2023-09-26T03:52:27.818Z,13.81
2023-09-26T03:53:29.706Z,13.79
2023-09-26T03:54:29.551Z,13.75
2023-09-26T03:55:28.008Z,13.75
2023-09-26T03:56:29.822Z,13.75
2023-09-26T03:57:30.528Z,13.75
2023-09-26T03:58:27.637Z,13.77
2023-09-26T03:59:28.462Z,13.75
2023-09-26T04:00:30.760Z,13.75
2023-09-26T04:01:31.808Z,13.75
2023-09-26T04:02:28.405Z,13.75
2023-09-26T04:03:24.461Z,13.75
2023-09-26T04:04:23.505Z,13.75
2023-09-26T04:05:21.766Z,13.75
2023-09-26T04:06:26.361Z,13.73
2023-09-26T04:07:30.019Z,13.75
2023-09-26T04:08:30.223Z,13.73
2023-09-26T04:09:27.846Z,13.75
2023-09-26T04:10:28.627Z,13.75
2023-09-26T04:11:56.399Z,13.75
2023-09-26T04:12:28.502Z,13.75
2023-09-26T04:13:22.345Z,13.75
2023-09-26T04:14:28.368Z,13.75
2023-09-26T04:15:30.450Z,13.75
2023-09-26T04:16:32.708Z,13.75
2023-09-26T04:17:28.753Z,13.77
2023-09-26T04:18:26.670Z,13.80
2023-09-26T04:19:18.875Z,13.81
2023-09-26T04:20:26.497Z,13.81
2023-09-26T04:21:23.993Z,13.81
2023-09-26T04:22:26.737Z,13.81
2023-09-26T04:23:29.707Z,13.81
2023-09-26T04:24:26.673Z,13.81
2023-09-26T04:25:29.664Z,13.81
2023-09-26T04:26:32.737Z,13.81
2023-09-26T04:27:31.255Z,13.82
2023-09-26T04:28:28.363Z,13.82
2023-09-26T04:29:25.782Z,13.83
2023-09-26T04:30:28.364Z,13.83
2023-09-26T04:31:30.806Z,13.81
2023-09-26T04:32:30.733Z,13.85
2023-09-26T04:33:28.674Z,13.85
2023-09-26T04:34:26.302Z,13.87
2023-09-26T04:35:30.155Z,13.87
2023-09-26T04:36:31.188Z,13.87
2023-09-26T04:37:28.890Z,13.87
2023-09-26T04:38:29.407Z,13.87
2023-09-26T04:39:31.582Z,13.87
2023-09-26T04:40:34.362Z,13.87
2023-09-26T04:41:59.176Z,13.87
2023-09-26T04:42:26.258Z,13.87
2023-09-26T04:43:21.863Z,13.87
2023-09-26T04:44:18.666Z,13.87
2023-09-26T04:45:22.757Z,13.87
2023-09-26T04:46:27.931Z,13.87
2023-09-26T04:47:28.320Z,13.87
2023-09-26T04:48:28.727Z,13.87
2023-09-26T04:49:27.847Z,13.88
2023-09-26T04:50:31.993Z,13.87
2023-09-26T04:51:29.933Z,13.90
2023-09-26T04:52:29.774Z,13.93
2023-09-26T04:53:30.344Z,13.93
2023-09-26T04:54:29.009Z,13.93
2023-09-26T04:55:30.518Z,13.93
2023-09-26T04:56:30.794Z,13.93
2023-09-26T04:57:31.056Z,13.93
2023-09-26T04:58:29.245Z,13.93
2023-09-26T04:59:59.428Z,13.93
2023-09-26T05:00:28.789Z,13.93
2023-09-26T05:01:28.310Z,13.93
2023-09-26T05:02:26.575Z,13.93
2023-09-26T05:03:26.948Z,13.93
2023-09-26T05:04:28.624Z,13.93
2023-09-26T05:05:31.533Z,13.93
2023-09-26T05:06:29.980Z,13.93
2023-09-26T05:07:27.842Z,13.96
2023-09-26T05:08:18.854Z,13.94
2023-09-26T05:09:11.702Z,13.93
2023-09-26T05:10:02.849Z,13.93
2023-09-26T05:11:14.161Z,13.93
2023-09-26T05:12:20.636Z,13.93
2023-09-26T05:13:26.701Z,13.93
2023-09-26T05:14:31.219Z,13.93
2023-09-26T05:15:33.436Z,13.93
2023-09-26T05:16:32.485Z,13.93
2023-09-26T05:17:28.320Z,13.93
2023-09-26T05:18:25.826Z,13.93
2023-09-26T05:19:29.332Z,13.93
2023-09-26T05:20:28.919Z,13.93
2023-09-26T05:21:32.213Z,13.93
2023-09-26T05:22:30.681Z,13.93
2023-09-26T05:23:30.756Z,13.93
2023-09-26T05:24:29.266Z,13.93
2023-09-26T05:25:29.278Z,13.93
2023-09-26T05:26:31.751Z,13.93
2023-09-26T05:27:31.653Z,13.93
2023-09-26T05:28:31.059Z,13.93
2023-09-26T05:29:28.781Z,13.93
2023-09-26T05:30:32.307Z,13.93
2023-09-26T05:31:34.486Z,13.91
2023-09-26T05:32:33.060Z,13.87
2023-09-26T05:33:32.381Z,13.87
2023-09-26T05:34:31.249Z,13.87
2023-09-26T05:35:33.639Z,13.87
2023-09-26T05:36:30.711Z,13.87
2023-09-26T05:37:26.433Z,13.87
2023-09-26T05:38:27.155Z,13.87
2023-09-26T05:39:29.351Z,13.87
2023-09-26T05:40:33.156Z,13.87
2023-09-26T05:41:56.899Z,13.87
2023-09-26T05:42:28.785Z,13.87
2023-09-26T05:43:27.092Z,13.87
2023-09-26T05:44:21.141Z,13.87
2023-09-26T05:45:23.561Z,13.83
2023-09-26T05:46:29.096Z,13.82
2023-09-26T05:47:31.938Z,13.81
2023-09-26T05:48:29.586Z,13.81
2023-09-26T05:49:28.840Z,13.81
2023-09-26T05:50:32.347Z,13.81
2023-09-26T05:51:32.189Z,13.81
2023-09-26T05:52:31.408Z,13.81
2023-09-26T05:53:30.268Z,13.81
2023-09-26T05:54:32.400Z,13.81
2023-09-26T05:55:31.676Z,13.78
2023-09-26T05:56:31.624Z,13.80
2023-09-26T05:57:31.946Z,13.81
2023-09-26T05:58:29.242Z,13.77
2023-09-26T05:59:31.473Z,13.76
2023-09-26T06:00:33.349Z,13.75
2023-09-26T06:02:00.561Z,13.75
2023-09-26T06:02:27.734Z,13.77
2023-09-26T06:03:24.502Z,13.81
2023-09-26T06:04:23.207Z,13.77
2023-09-26T06:05:29.354Z,13.76
2023-09-26T06:06:32.723Z,13.75
2023-09-26T06:07:33.006Z,13.76
2023-09-26T06:08:29.606Z,13.75
2023-09-26T06:09:28.346Z,13.75
2023-09-26T06:11:18.287Z,13.78
2023-09-26T06:11:36.971Z,13.77
2023-09-26T06:12:37.689Z,13.75
2023-09-26T06:13:34.737Z,13.75
2023-09-26T06:14:32.743Z,13.75
2023-09-26T06:15:32.822Z,13.75
2023-09-26T06:16:33.894Z,13.76
2023-09-26T06:17:33.709Z,13.76
2023-09-26T06:18:32.727Z,13.79
2023-09-26T06:19:33.665Z,13.78
2023-09-26T06:20:36.643Z,13.79
2023-09-26T06:22:04.549Z,13.80
2023-09-26T06:22:30.579Z,13.81
2023-09-26T06:23:26.483Z,13.81
2023-09-26T06:24:23.058Z,13.81
2023-09-26T06:25:25.767Z,13.81
2023-09-26T06:26:31.318Z,13.81
2023-09-26T06:27:31.576Z,13.81
2023-09-26T06:28:29.805Z,13.85
2023-09-26T06:29:29.250Z,13.87
2023-09-26T06:30:30.781Z,13.87
2023-09-26T06:32:30.428Z,13.87
2023-09-26T06:33:26.973Z,13.88
2023-09-26T06:34:22.333Z,13.93
2023-09-26T06:35:26.979Z,13.92
2023-09-26T06:36:28.917Z,13.93
2023-09-26T06:37:31.026Z,13.93
2023-09-26T06:38:31.070Z,13.93
2023-09-26T06:39:30.724Z,13.93
2023-09-26T06:40:31.921Z,13.93
2023-09-26T06:42:07.811Z,13.95
2023-09-26T06:42:31.247Z,13.98
2023-09-26T06:43:27.212Z,13.98
2023-09-26T06:44:27.529Z,14
2023-09-26T06:45:34.230Z,14
2023-09-26T06:46:58.168Z,14
2023-09-26T06:47:30.521Z,14.02
2023-09-26T06:48:28.125Z,14.02
2023-09-26T06:49:30.114Z,14.04
2023-09-26T06:50:32.526Z,14.06
2023-09-26T06:52:03.451Z,14.06
2023-09-26T06:52:33.540Z,14.06
2023-09-26T06:53:30.819Z,14.06
2023-09-26T06:54:30.380Z,14.06
2023-09-26T06:55:35.634Z,14.06
2023-09-26T06:57:01.903Z,14.06
2023-09-26T06:57:32.873Z,14.06
2023-09-26T06:58:31.778Z,14.10
2023-09-26T06:59:31.561Z,14.12
2023-09-26T07:00:35.211Z,14.12
2023-09-26T07:02:07.688Z,14.12
2023-09-26T07:02:30.695Z,14.12
2023-09-26T07:03:34.144Z,14.12
2023-09-26T07:04:33.704Z,14.13
2023-09-26T07:05:37.456Z,14.14
2023-09-26T07:07:04.240Z,14.18
2023-09-26T07:07:29.713Z,14.18
2023-09-26T07:08:30.212Z,14.18
2023-09-26T07:09:28.599Z,14.18
2023-09-26T07:10:36.009Z,14.18
2023-09-26T07:12:09.102Z,14.19
2023-09-26T07:12:38.444Z,14.20
2023-09-26T07:14:08.188Z,14.21
2023-09-26T07:14:30.929Z,14.25
2023-09-26T07:15:31.953Z,14.25
2023-09-26T07:16:33.913Z,14.25
2023-09-26T07:17:32.643Z,14.25
2023-09-26T07:18:30.646Z,14.25
2023-09-26T07:19:33.615Z,14.25
2023-09-26T07:20:34.622Z,14.25
2023-09-26T07:22:01.604Z,14.30
2023-09-26T07:22:31.352Z,14.31
2023-09-26T07:23:30.883Z,14.31
2023-09-26T07:24:48.103Z,14.31
2023-09-26T07:25:35.786Z,14.31
2023-09-26T07:26:37.032Z,14.31
2023-09-26T07:28:01.259Z,14.31
2023-09-26T07:28:30.945Z,14.32
2023-09-26T07:29:30.079Z,14.31
2023-09-26T07:30:30.146Z,14.34
2023-09-26T07:31:32.623Z,14.36
2023-09-26T07:32:33.804Z,14.36
2023-09-26T07:33:34.094Z,14.37
2023-09-26T07:34:33.810Z,14.37
2023-09-26T07:35:33.113Z,14.37
2023-09-26T07:36:32.975Z,14.37
2023-09-26T07:37:33.308Z,14.37
2023-09-26T07:38:31.541Z,14.37
2023-09-26T07:39:35.803Z,14.37
2023-09-26T07:41:13.192Z,14.37
2023-09-26T07:42:08.752Z,14.37
2023-09-26T07:42:35.080Z,14.37
2023-09-26T07:44:00.984Z,14.37
2023-09-26T07:44:34.852Z,14.37
2023-09-26T07:45:36.966Z,14.37
2023-09-26T07:47:04.265Z,14.37
2023-09-26T07:47:32.932Z,14.37
2023-09-26T07:48:31.681Z,14.37
2023-09-26T07:50:03.982Z,14.37
2023-09-26T07:50:37.005Z,14.38
2023-09-26T07:52:03.493Z,14.38
2023-09-26T07:52:33.715Z,14.43
2023-09-26T07:53:33.800Z,14.43
2023-09-26T07:54:33.961Z,14.43
2023-09-26T07:55:36.734Z,14.43
2023-09-26T07:57:01.857Z,14.43
2023-09-26T07:57:30.157Z,14.43
2023-09-26T07:58:26.842Z,14.43
2023-09-26T07:59:32.467Z,14.43
2023-09-26T08:00:37.903Z,14.43
2023-09-26T08:02:04.362Z,14.43
2023-09-26T08:02:32.834Z,14.43
2023-09-26T08:03:26.502Z,14.43
2023-09-26T08:04:24.035Z,14.43
2023-09-26T08:05:32.267Z,14.44
2023-09-26T08:06:35.646Z,14.43
2023-09-26T08:07:34.235Z,14.45
2023-09-26T08:08:34.125Z,14.48
2023-09-26T08:09:34.702Z,14.47
2023-09-26T08:10:36.494Z,14.5
2023-09-26T08:12:08.666Z,14.48
2023-09-26T08:12:37.041Z,14.5
2023-09-26T08:14:09.296Z,14.5
2023-09-26T08:14:33.714Z,14.5
2023-09-26T08:15:38.015Z,14.5
2023-09-26T08:17:10.657Z,14.5
2023-09-26T08:17:34.908Z,14.5
2023-09-26T08:18:35.160Z,14.5
2023-09-26T08:19:35.785Z,14.5
2023-09-26T08:20:38.260Z,14.5
2023-09-26T08:22:08.042Z,14.5
2023-09-26T08:23:02.626Z,14.5
2023-09-26T08:23:30.724Z,14.5
2023-09-26T08:24:33.609Z,14.5
2023-09-26T08:26:05.927Z,14.5
2023-09-26T08:26:36.451Z,14.52
2023-09-26T08:28:03.295Z,14.5
2023-09-26T08:28:33.222Z,14.54
2023-09-26T08:29:30.429Z,14.55
2023-09-26T08:30:29.873Z,14.56
2023-09-26T08:31:27.713Z,14.56
2023-09-26T08:32:26.296Z,14.56
2023-09-26T08:33:32.528Z,14.56
2023-09-26T08:34:34.077Z,14.56
2023-09-26T08:35:36.552Z,14.56
2023-09-26T08:37:01.308Z,14.56
2023-09-26T08:37:32.118Z,14.56
2023-09-26T08:38:29.756Z,14.56
2023-09-26T08:39:32.143Z,14.56
2023-09-26T08:40:39.284Z,14.56
2023-09-26T08:42:08.135Z,14.56
2023-09-26T08:43:10.508Z,14.56
2023-09-26T08:43:32.444Z,14.56
2023-09-26T08:44:31.731Z,14.56
2023-09-26T08:45:36.909Z,14.56
2023-09-26T08:47:02.787Z,14.57
2023-09-26T08:47:35.178Z,14.60
2023-09-26T08:48:33.593Z,14.59
2023-09-26T08:49:33.600Z,14.61
2023-09-26T08:50:31.244Z,14.58
2023-09-26T08:51:31.389Z,14.62
2023-09-26T08:52:31.652Z,14.62
2023-09-26T08:54:00.751Z,14.62
2023-09-26T08:54:34.395Z,14.62
2023-09-26T08:55:36.629Z,14.62
2023-09-26T08:57:02.980Z,14.62
2023-09-26T08:57:30.081Z,14.62
2023-09-26T08:58:30.142Z,14.62
2023-09-26T08:59:28.667Z,14.62
2023-09-26T09:00:36.747Z,14.62
2023-09-26T09:02:06.466Z,14.62
2023-09-26T09:02:37.405Z,14.62
2023-09-26T09:04:04.682Z,14.62
2023-09-26T09:04:30.000Z,14.62
2023-09-26T09:05:30.942Z,14.62
2023-09-26T09:06:33.502Z,14.62
2023-09-26T09:07:33.159Z,14.62
2023-09-26T09:08:33.849Z,14.62
2023-09-26T09:09:34.731Z,14.65
2023-09-26T09:10:39.146Z,14.62
2023-09-26T09:12:09.437Z,14.64
2023-09-26T09:12:54.985Z,14.67
2023-09-26T09:14:04.838Z,14.67
2023-09-26T09:14:33.682Z,14.68
2023-09-26T09:15:34.673Z,14.68
2023-09-26T09:16:33.249Z,14.68
2023-09-26T09:17:33.391Z,14.68
2023-09-26T09:18:34.694Z,14.68
2023-09-26T09:19:58.872Z,14.68
2023-09-26T09:20:30.698Z,14.68
2023-09-26T09:21:36.479Z,14.68
2023-09-26T09:22:30.875Z,14.68
2023-09-26T09:23:36.167Z,14.68
2023-09-26T09:25:07.694Z,14.68
2023-09-26T09:25:33.670Z,14.68
2023-09-26T09:27:02.306Z,14.70
2023-09-26T09:27:31.465Z,14.68
2023-09-26T09:28:33.663Z,14.70
2023-09-26T09:29:34.904Z,14.73
2023-09-26T09:30:35.777Z,14.73
2023-09-26T09:32:11.737Z,14.75
2023-09-26T09:32:35.992Z,14.75
2023-09-26T09:34:01.348Z,14.75
2023-09-26T09:34:28.734Z,14.75
2023-09-26T09:35:29.282Z,14.75
2023-09-26T09:36:29.004Z,14.75
2023-09-26T09:37:33.991Z,14.75
2023-09-26T09:38:34.340Z,14.76
2023-09-26T09:39:33.759Z,14.75
2023-09-26T09:40:38.209Z,14.77
2023-09-26T09:42:10.001Z,14.81
2023-09-26T09:43:10.975Z,14.81
2023-09-26T09:43:34.573Z,14.81
2023-09-26T09:44:39.113Z,14.81
2023-09-26T09:46:06.860Z,14.81
2023-09-26T09:46:36.817Z,14.81
2023-09-26T09:48:05.133Z,14.81
2023-09-26T09:48:31.691Z,14.81
2023-09-26T09:49:32.690Z,14.81
2023-09-26T09:50:30.543Z,14.81
2023-09-26T09:51:34.535Z,14.81
2023-09-26T09:53:02.696Z,14.81
2023-09-26T09:53:32.015Z,14.81
2023-09-26T09:54:33.190Z,14.81
2023-09-26T09:55:32.522Z,14.81
2023-09-26T09:56:36.024Z,14.82
2023-09-26T09:58:01.914Z,14.83
2023-09-26T09:58:28.179Z,14.85
2023-09-26T09:59:29.054Z,14.86
2023-09-26T10:00:26.522Z,14.87
2023-09-26T10:02:03.105Z,14.87
2023-09-26T10:02:32.298Z,14.87
2023-09-26T10:03:30.445Z,14.87
2023-09-26T10:04:35.114Z,14.87
2023-09-26T10:05:52.291Z,14.87
2023-09-26T10:07:05.573Z,14.87
2023-09-26T10:07:30.168Z,14.87
2023-09-26T10:08:29.874Z,14.87
2023-09-26T10:09:36.760Z,14.87
2023-09-26T10:11:14.088Z,14.87
2023-09-26T10:12:10.880Z,14.87
2023-09-26T10:12:36.568Z,14.88
2023-09-26T10:14:38.542Z,14.91
2023-09-26T10:14:45.334Z,14.91
2023-09-26T10:15:32.301Z,14.90
2023-09-26T10:16:33.800Z,14.89
2023-09-26T10:17:35.338Z,14.92
2023-09-26T10:18:36.374Z,14.93
2023-09-26T10:20:11.546Z,14.93
2023-09-26T10:21:07.900Z,14.93
2023-09-26T10:22:10.955Z,14.93
2023-09-26T10:22:31.927Z,14.93
2023-09-26T10:23:33.333Z,14.93
2023-09-26T10:24:32.168Z,14.93
2023-09-26T10:25:36.617Z,14.93
2023-09-26T10:27:09.716Z,14.93
2023-09-26T10:29:13.891Z,14.93
2023-09-26T10:30:24.073Z,14.93
2023-09-26T10:31:29.242Z,14.93
2023-09-26T10:32:31.301Z,14.94
2023-09-26T10:33:39.637Z,14.93
2023-09-26T10:34:51.189Z,14.95
2023-09-26T10:35:29.751Z,14.98
2023-09-26T10:36:31.569Z,14.98
2023-09-26T10:37:30.516Z,15
2023-09-26T10:38:28.846Z,14.98
2023-09-26T10:39:30.520Z,15
2023-09-26T10:40:30.808Z,15
2023-09-26T10:44:34.867Z,15
2023-09-26T10:44:44.918Z,15
2023-09-26T10:45:25.261Z,15
2023-09-26T10:46:24.461Z,15
2023-09-26T10:47:27.564Z,15
2023-09-26T10:49:30.049Z,15
2023-09-26T10:51:00.593Z,15
2023-09-26T10:51:29.053Z,15.01
2023-09-26T10:52:24.746Z,15.01
2023-09-26T10:53:21.104Z,15.02
2023-09-26T10:54:23.664Z,15.02
2023-09-26T10:55:26.799Z,15.04
2023-09-26T10:56:28.489Z,15.04
2023-09-26T10:57:30.194Z,15.06
2023-09-26T10:58:29.860Z,15.06
2023-09-26T10:59:26.508Z,15.06
2023-09-26T11:00:30.179Z,15.06
2023-09-26T11:01:36.214Z,15.06
2023-09-26T11:02:34.366Z,15.06
2023-09-26T11:04:05.927Z,15.06
2023-09-26T11:05:11.931Z,15.06
2023-09-26T11:06:20.783Z,15.06
2023-09-26T11:07:26.269Z,15.06
2023-09-26T11:08:27.490Z,15.06
2023-09-26T11:09:28.575Z,15.06
2023-09-26T11:10:32.908Z,15.06
2023-09-26T11:12:00.662Z,15.06
2023-09-26T11:12:31.213Z,15.06
2023-09-26T11:13:30.301Z,15.06
2023-09-26T11:14:31.867Z,15.06
2023-09-26T11:15:53.405Z,15.06
2023-09-26T11:17:21.451Z,15.06
2023-09-26T11:17:21.559Z,15.06
2023-09-26T11:17:21.599Z,15.06
2023-09-26T11:18:17.864Z,15.06
2023-09-26T11:18:58.734Z,15.06
2023-09-26T11:20:51.011Z,15.06
2023-09-26T11:21:46.235Z,15.08
2023-09-26T11:22:45.082Z,15.08
2023-09-26T11:23:04.068Z,15.08
2023-09-26T11:23:46.404Z,15.08
2023-09-26T11:24:49.509Z,15.12
2023-09-26T11:25:39.218Z,15.12
2023-09-26T11:25:43.404Z,15.12
2023-09-26T11:27:03.278Z,15.11
2023-09-26T11:27:33.243Z,15.12
2023-09-26T11:28:31.188Z,15.12
2023-09-26T11:29:31.196Z,15.12
2023-09-26T11:30:32.141Z,15.12
2023-09-26T11:31:34.672Z,15.12
2023-09-26T11:32:33.511Z,15.12
2023-09-26T11:33:31.916Z,15.12
2023-09-26T11:34:30.706Z,15.12
2023-09-26T11:35:30.244Z,15.12
2023-09-26T11:36:31.563Z,15.12
2023-09-26T11:37:31.565Z,15.12
2023-09-26T11:38:31.338Z,15.12
2023-09-26T11:39:27.883Z,15.12
2023-09-26T11:40:31.422Z,15.12
2023-09-26T11:42:03.399Z,15.12
2023-09-26T11:42:28.186Z,15.12
2023-09-26T11:43:23.592Z,15.16
2023-09-26T11:44:19.326Z,15.16
2023-09-26T11:45:18.578Z,15.17
2023-09-26T11:46:17.895Z,15.18
2023-09-26T11:47:21.490Z,15.18
2023-09-26T11:48:23.553Z,15.18
2023-09-26T11:49:24.948Z,15.18
2023-09-26T11:50:27.474Z,15.18
2023-09-26T11:51:31.320Z,15.18
2023-09-26T11:52:32.224Z,15.18
2023-09-26T11:53:31.334Z,15.18
2023-09-26T11:54:28.557Z,15.18
2023-09-26T11:55:29.893Z,15.18
2023-09-26T11:56:29.888Z,15.18
2023-09-26T11:57:28.814Z,15.18
2023-09-26T11:58:26.578Z,15.18
2023-09-26T11:59:27.943Z,15.18
2023-09-26T12:00:30.302Z,15.18
2023-09-26T12:01:34.241Z,15.19
2023-09-26T12:02:31.254Z,15.20
2023-09-26T12:03:28.456Z,15.22
2023-09-26T12:04:29.259Z,15.23
2023-09-26T12:05:29.278Z,15.20
2023-09-26T12:06:30.410Z,15.25
2023-09-26T12:07:28.133Z,15.25
2023-09-26T12:08:30.493Z,15.25
2023-09-26T12:09:28.142Z,15.21
2023-09-26T12:10:29.393Z,15.25
2023-09-26T12:12:02.133Z,15.25
2023-09-26T12:12:29.432Z,15.25
2023-09-26T12:13:25.975Z,15.25
2023-09-26T12:14:20.660Z,15.25
2023-09-26T12:15:16.168Z,15.26
2023-09-26T12:16:22.183Z,15.27
2023-09-26T12:17:26.052Z,15.27
2023-09-26T12:18:28.911Z,15.31
2023-09-26T12:19:28.241Z,15.31
2023-09-26T12:20:32.246Z,15.31
2023-09-26T12:21:32.762Z,15.31
2023-09-26T12:22:29.281Z,15.31
2023-09-26T12:23:27.117Z,15.31
2023-09-26T12:24:25.642Z,15.31
2023-09-26T12:25:25.623Z,15.31
2023-09-26T12:26:28.189Z,15.31
2023-09-26T12:27:29.911Z,15.31
2023-09-26T12:28:27.292Z,15.31
2023-09-26T12:29:29.051Z,15.31
2023-09-26T12:30:28.549Z,15.31
2023-09-26T12:31:28.745Z,15.31
2023-09-26T12:32:28.276Z,15.33
2023-09-26T12:33:29.937Z,15.31
2023-09-26T12:34:28.585Z,15.34
2023-09-26T12:35:31.352Z,15.36
2023-09-26T12:36:31.744Z,15.37
2023-09-26T12:37:27.684Z,15.37
2023-09-26T12:38:27.834Z,15.37
2023-09-26T12:39:27.853Z,15.37
2023-09-26T12:40:30.793Z,15.37
2023-09-26T12:41:35.957Z,15.37
2023-09-26T12:42:33.383Z,15.37
2023-09-26T12:43:31.208Z,15.37
2023-09-26T12:44:28.744Z,15.37
2023-09-26T12:45:26.992Z,15.37
2023-09-26T12:46:31.108Z,15.37
2023-09-26T12:47:28.474Z,15.37
2023-09-26T12:48:26.788Z,15.37
2023-09-26T12:49:24.281Z,15.38
2023-09-26T12:50:27.174Z,15.40
2023-09-26T12:51:27.843Z,15.42
2023-09-26T12:52:29.055Z,15.43
2023-09-26T12:53:31.512Z,15.43
2023-09-26T12:54:28.665Z,15.43
2023-09-26T12:55:27.348Z,15.43
2023-09-26T12:56:29.077Z,15.43
2023-09-26T12:57:29.957Z,15.43
2023-09-26T12:58:27.946Z,15.43
2023-09-26T12:59:27.637Z,15.43
2023-09-26T13:00:29.977Z,15.43
2023-09-26T13:01:34.928Z,15.43